sensor_id;sensor_type;location;lat;lon;timestamp;pressure;altitude;pressure_sealevel;temperature;humidity
51333;BME280;37417;48.118;11.734;2023-09-30T00:02:43;96223.47;;;15.53;100.00
51333;BME280;37417;48.118;11.734;2023-09-30T00:05:28;96217.19;;;15.54;100.00
51333;BME280;37417;48.118;11.734;2023-09-30T00:08:14;96221.25;;;15.43;100.00
51333;BME280;37417;48.118;11.734;2023-09-30T00:11:00;96236.25;;;15.30;100.00
51333;BME280;37417;48.118;11.734;2023-09-30T00:13:46;96226.78;;;15.22;100.00
51333;BME280;37417;48.118;11.734;2023-09-30T00:16:33;96237.31;;;15.15;100.00
51333;BME280;37417;48.118;11.734;2023-09-30T00:19:20;96227.38;;;15.11;100.00
51333;BME280;37417;48.118;11.734;2023-09-30T00:22:08;96240.31;;;15.06;100.00
51333;BME280;37417;48.118;11.734;2023-09-30T00:24:53;96256.50;;;14.96;100.00
51333;BME280;37417;48.118;11.734;2023-09-30T00:27:39;96264.19;;;15.11;100.00
51333;BME280;37417;48.118;11.734;2023-09-30T00:30:25;96267.59;;;15.25;100.00
51333;BME280;37417;48.118;11.734;2023-09-30T00:33:10;96262.97;;;15.27;100.00
51333;BME280;37417;48.118;11.734;2023-09-30T00:35:56;96261.09;;;15.54;100.00
51333;BME280;37417;48.118;11.734;2023-09-30T00:38:42;96259.47;;;15.59;100.00
51333;BME280;37417;48.118;11.734;2023-09-30T00:41:27;96262.88;;;15.73;100.00
51333;BME280;37417;48.118;11.734;2023-09-30T00:44:13;96257.19;;;15.76;100.00
51333;BME280;37417;48.118;11.734;2023-09-30T00:46:59;96251.94;;;15.76;100.00
51333;BME280;37417;48.118;11.734;2023-09-30T00:49:45;96259.81;;;15.83;100.00
51333;BME280;37417;48.118;11.734;2023-09-30T00:52:31;96254.16;;;15.79;100.00
51333;BME280;37417;48.118;11.734;2023-09-30T00:55:19;96264.91;;;15.71;100.00
51333;BME280;37417;48.118;11.734;2023-09-30T00:58:06;96265.31;;;15.75;100.00
51333;BME280;37417;48.118;11.734;2023-09-30T01:00:52;96256.00;;;15.79;100.00
51333;BME280;37417;48.118;11.734;2023-09-30T01:03:39;96266.31;;;15.74;100.00
51333;BME280;37417;48.118;11.734;2023-09-30T01:06:25;96264.53;;;15.67;100.00
51333;BME280;37417;48.118;11.734;2023-09-30T01:09:12;96258.84;;;15.57;100.00
51333;BME280;37417;48.118;11.734;2023-09-30T01:11:58;96260.28;;;15.53;100.00
51333;BME280;37417;48.118;11.734;2023-09-30T01:14:43;96266.97;;;15.49;100.00
51333;BME280;37417;48.118;11.734;2023-09-30T01:17:30;96267.38;;;15.53;100.00
51333;BME280;37417;48.118;11.734;2023-09-30T01:20:16;96263.94;;;15.52;100.00
51333;BME280;37417;48.118;11.734;2023-09-30T01:23:02;96270.97;;;15.58;100.00
51333;BME280;37417;48.118;11.734;2023-09-30T01:25:49;96261.88;;;15.61;100.00
51333;BME280;37417;48.118;11.734;2023-09-30T01:28:35;96263.06;;;15.58;100.00
51333;BME280;37417;48.118;11.734;2023-09-30T01:31:21;96260.88;;;15.55;100.00
51333;BME280;37417;48.118;11.734;2023-09-30T01:34:06;96265.34;;;15.48;100.00
51333;BME280;37417;48.118;11.734;2023-09-30T01:36:53;96266.16;;;15.42;100.00
51333;BME280;37417;48.118;11.734;2023-09-30T01:39:38;96269.81;;;15.34;100.00
51333;BME280;37417;48.118;11.734;2023-09-30T01:42:24;96266.00;;;15.24;100.00
51333;BME280;37417;48.118;11.734;2023-09-30T01:45:11;96261.97;;;15.21;100.00
51333;BME280;37417;48.118;11.734;2023-09-30T01:47:57;96272.88;;;15.18;100.00
51333;BME280;37417;48.118;11.734;2023-09-30T01:50:43;96267.63;;;15.11;100.00
51333;BME280;37417;48.118;11.734;2023-09-30T01:53:28;96274.31;;;15.14;100.00
51333;BME280;37417;48.118;11.734;2023-09-30T01:56:14;96281.16;;;15.15;100.00
51333;BME280;37417;48.118;11.734;2023-09-30T01:59:00;96280.16;;;15.16;100.00
51333;BME280;37417;48.118;11.734;2023-09-30T02:01:45;96276.28;;;15.18;100.00
51333;BME280;37417;48.118;11.734;2023-09-30T02:04:31;96276.28;;;15.18;100.00
51333;BME280;37417;48.118;11.734;2023-09-30T02:07:17;96272.47;;;15.21;100.00
51333;BME280;37417;48.118;11.734;2023-09-30T02:10:03;96271.25;;;15.24;100.00
51333;BME280;37417;48.118;11.734;2023-09-30T02:12:48;96274.88;;;15.29;100.00
51333;BME280;37417;48.118;11.734;2023-09-30T02:15:34;96277.91;;;15.33;100.00
51333;BME280;37417;48.118;11.734;2023-09-30T02:18:20;96282.34;;;15.32;100.00
51333;BME280;37417;48.118;11.734;2023-09-30T02:21:05;96279.72;;;15.32;100.00
51333;BME280;37417;48.118;11.734;2023-09-30T02:23:51;96270.63;;;15.35;100.00
51333;BME280;37417;48.118;11.734;2023-09-30T02:26:40;96271.44;;;15.35;100.00
51333;BME280;37417;48.118;11.734;2023-09-30T02:29:26;96269.63;;;15.29;100.00
51333;BME280;37417;48.118;11.734;2023-09-30T02:32:11;96272.25;;;15.23;100.00
51333;BME280;37417;48.118;11.734;2023-09-30T02:34:59;96272.66;;;15.20;100.00
51333;BME280;37417;48.118;11.734;2023-09-30T02:37:44;96279.56;;;15.21;100.00
51333;BME280;37417;48.118;11.734;2023-09-30T02:40:30;96280.53;;;15.20;100.00
51333;BME280;37417;48.118;11.734;2023-09-30T02:43:16;96283.56;;;15.30;100.00
51333;BME280;37417;48.118;11.734;2023-09-30T02:46:02;96290.66;;;15.29;100.00
51333;BME280;37417;48.118;11.734;2023-09-30T02:48:47;96283.78;;;15.35;100.00
51333;BME280;37417;48.118;11.734;2023-09-30T02:51:33;96276.28;;;15.32;100.00
51333;BME280;37417;48.118;11.734;2023-09-30T02:54:19;96285.59;;;15.28;100.00
51333;BME280;37417;48.118;11.734;2023-09-30T02:57:04;96280.16;;;15.23;100.00
51333;BME280;37417;48.118;11.734;2023-09-30T02:59:50;96282.78;;;15.16;100.00
51333;BME280;37417;48.118;11.734;2023-09-30T03:02:37;96279.56;;;15.07;100.00
51333;BME280;37417;48.118;11.734;2023-09-30T03:05:23;96273.28;;;15.08;100.00
51333;BME280;37417;48.118;11.734;2023-09-30T03:08:09;96273.09;;;15.03;100.00
51333;BME280;37417;48.118;11.734;2023-09-30T03:10:55;96281.56;;;15.05;100.00
51333;BME280;37417;48.118;11.734;2023-09-30T03:13:41;96287.22;;;15.02;100.00
51333;BME280;37417;48.118;11.734;2023-09-30T03:16:27;96286.00;;;14.98;100.00
51333;BME280;37417;48.118;11.734;2023-09-30T03:19:13;96276.50;;;14.97;100.00
51333;BME280;37417;48.118;11.734;2023-09-30T03:22:01;96287.63;;;14.99;100.00
51333;BME280;37417;48.118;11.734;2023-09-30T03:24:50;96288.03;;;14.96;100.00
51333;BME280;37417;48.118;11.734;2023-09-30T03:27:36;96289.66;;;14.97;100.00
51333;BME280;37417;48.118;11.734;2023-09-30T03:30:21;96286.00;;;15.05;100.00
51333;BME280;37417;48.118;11.734;2023-09-30T03:33:07;96288.63;;;15.05;100.00
51333;BME280;37417;48.118;11.734;2023-09-30T03:35:53;96284.59;;;15.02;100.00
51333;BME280;37417;48.118;11.734;2023-09-30T03:38:38;96291.25;;;14.98;100.00
51333;BME280;37417;48.118;11.734;2023-09-30T03:41:24;96298.34;;;14.98;100.00
51333;BME280;37417;48.118;11.734;2023-09-30T03:44:10;96306.81;;;14.93;100.00
51333;BME280;37417;48.118;11.734;2023-09-30T03:46:56;96300.38;;;14.82;100.00
51333;BME280;37417;48.118;11.734;2023-09-30T03:49:42;96302.56;;;14.79;100.00
51333;BME280;37417;48.118;11.734;2023-09-30T03:52:29;96313.28;;;14.71;100.00
51333;BME280;37417;48.118;11.734;2023-09-30T03:55:15;96309.41;;;14.67;100.00
51333;BME280;37417;48.118;11.734;2023-09-30T03:58:01;96302.34;;;14.67;100.00
51333;BME280;37417;48.118;11.734;2023-09-30T04:00:49;96294.28;;;14.69;100.00
51333;BME280;37417;48.118;11.734;2023-09-30T04:03:34;96293.25;;;14.63;100.00
51333;BME280;37417;48.118;11.734;2023-09-30T04:06:22;96300.13;;;14.64;100.00
51333;BME280;37417;48.118;11.734;2023-09-30T04:09:08;96299.72;;;14.67;100.00
51333;BME280;37417;48.118;11.734;2023-09-30T04:11:56;96310.63;;;14.64;100.00
51333;BME280;37417;48.118;11.734;2023-09-30T04:14:42;96299.72;;;14.60;100.00
51333;BME280;37417;48.118;11.734;2023-09-30T04:17:28;96311.00;;;14.61;100.00
51333;BME280;37417;48.118;11.734;2023-09-30T04:20:13;96309.41;;;14.60;100.00
51333;BME280;37417;48.118;11.734;2023-09-30T04:23:06;96303.75;;;14.56;100.00
51333;BME280;37417;48.118;11.734;2023-09-30T04:25:52;96303.94;;;14.55;100.00
51333;BME280;37417;48.118;11.734;2023-09-30T04:28:38;96307.19;;;14.50;100.00
51333;BME280;37417;48.118;11.734;2023-09-30T04:31:23;96304.56;;;14.50;100.00
51333;BME280;37417;48.118;11.734;2023-09-30T04:34:09;96304.56;;;14.50;100.00
51333;BME280;37417;48.118;11.734;2023-09-30T04:36:55;96311.78;;;14.48;100.00
51333;BME280;37417;48.118;11.734;2023-09-30T04:39:40;96310.78;;;14.43;100.00
51333;BME280;37417;48.118;11.734;2023-09-30T04:42:26;96311.34;;;14.38;100.00
51333;BME280;37417;48.118;11.734;2023-09-30T04:45:12;96315.78;;;14.38;100.00
51333;BME280;37417;48.118;11.734;2023-09-30T04:47:58;96320.00;;;14.32;100.00
51333;BME280;37417;48.118;11.734;2023-09-30T04:50:44;96320.97;;;14.18;100.00
51333;BME280;37417;48.118;11.734;2023-09-30T04:53:30;96338.69;;;14.09;100.00
51333;BME280;37417;48.118;11.734;2023-09-30T04:56:19;96345.53;;;14.10;100.00
51333;BME280;37417;48.118;11.734;2023-09-30T04:59:04;96351.91;;;13.88;100.00
51333;BME280;37417;48.118;11.734;2023-09-30T05:01:50;96356.63;;;13.71;100.00
51333;BME280;37417;48.118;11.734;2023-09-30T05:04:36;96358.81;;;13.61;100.00
51333;BME280;37417;48.118;11.734;2023-09-30T05:07:22;96363.03;;;13.62;100.00
51333;BME280;37417;48.118;11.734;2023-09-30T05:10:08;96374.78;;;13.66;100.00
51333;BME280;37417;48.118;11.734;2023-09-30T05:12:59;96373.53;;;13.62;100.00
51333;BME280;37417;48.118;11.734;2023-09-30T05:15:44;96367.44;;;13.54;100.00
51333;BME280;37417;48.118;11.734;2023-09-30T05:18:31;96375.91;;;13.57;100.00
51333;BME280;37417;48.118;11.734;2023-09-30T05:21:16;96378.28;;;13.51;100.00
51333;BME280;37417;48.118;11.734;2023-09-30T05:24:02;96386.63;;;13.62;100.00
51333;BME280;37417;48.118;11.734;2023-09-30T05:26:48;96390.34;;;13.74;100.00
51333;BME280;37417;48.118;11.734;2023-09-30T05:29:34;96395.63;;;13.80;100.00
51333;BME280;37417;48.118;11.734;2023-09-30T05:32:19;96395.28;;;13.90;100.00
51333;BME280;37417;48.118;11.734;2023-09-30T05:35:06;96398.34;;;13.94;100.00
51333;BME280;37417;48.118;11.734;2023-09-30T05:37:58;96394.13;;;13.99;100.00
51333;BME280;37417;48.118;11.734;2023-09-30T05:40:44;96392.72;;;14.03;100.00
51333;BME280;37417;48.118;11.734;2023-09-30T05:43:29;96389.13;;;14.04;100.00
51333;BME280;37417;48.118;11.734;2023-09-30T05:46:15;96399.63;;;14.04;100.00
51333;BME280;37417;48.118;11.734;2023-09-30T05:49:01;96400.03;;;14.08;100.00
51333;BME280;37417;48.118;11.734;2023-09-30T05:51:47;96393.63;;;14.17;100.00
51333;BME280;37417;48.118;11.734;2023-09-30T05:54:33;96395.31;;;14.31;100.00
51333;BME280;37417;48.118;11.734;2023-09-30T05:57:18;96392.09;;;14.36;100.00
51333;BME280;37417;48.118;11.734;2023-09-30T06:00:05;96398.19;;;14.43;100.00
51333;BME280;37417;48.118;11.734;2023-09-30T06:03:00;96403.69;;;14.48;100.00
51333;BME280;37417;48.118;11.734;2023-09-30T06:05:45;96393.13;;;14.42;100.00
51333;BME280;37417;48.118;11.734;2023-09-30T06:08:31;96396.38;;;14.44;100.00
51333;BME280;37417;48.118;11.734;2023-09-30T06:11:18;96395.19;;;14.46;100.00
51333;BME280;37417;48.118;11.734;2023-09-30T06:14:04;96403.91;;;14.53;100.00
51333;BME280;37417;48.118;11.734;2023-09-30T06:16:51;96397.25;;;14.57;100.00
51333;BME280;37417;48.118;11.734;2023-09-30T06:19:37;96397.06;;;14.59;100.00
51333;BME280;37417;48.118;11.734;2023-09-30T06:22:23;96400.31;;;14.68;100.00
51333;BME280;37417;48.118;11.734;2023-09-30T06:25:09;96386.00;;;14.77;100.00
51333;BME280;37417;48.118;11.734;2023-09-30T06:27:55;96389.47;;;14.90;100.00
51333;BME280;37417;48.118;11.734;2023-09-30T06:30:41;96393.91;;;14.90;100.00
51333;BME280;37417;48.118;11.734;2023-09-30T06:33:28;96392.69;;;14.93;100.00
51333;BME280;37417;48.118;11.734;2023-09-30T06:36:15;96407.28;;;14.95;100.00
51333;BME280;37417;48.118;11.734;2023-09-30T06:39:00;96405.22;;;14.84;100.00
51333;BME280;37417;48.118;11.734;2023-09-30T06:41:48;96410.69;;;14.89;100.00
51333;BME280;37417;48.118;11.734;2023-09-30T06:44:33;96426.69;;;14.94;100.00
51333;BME280;37417;48.118;11.734;2023-09-30T06:47:19;96413.75;;;15.06;100.00
51333;BME280;37417;48.118;11.734;2023-09-30T06:50:11;96415.19;;;15.08;100.00
51333;BME280;37417;48.118;11.734;2023-09-30T06:52:57;96410.94;;;15.07;100.00
51333;BME280;37417;48.118;11.734;2023-09-30T06:55:45;96417.00;;;15.14;100.00
51333;BME280;37417;48.118;11.734;2023-09-30T06:58:31;96416.81;;;15.42;100.00
51333;BME280;37417;48.118;11.734;2023-09-30T07:01:16;96405.28;;;15.57;100.00
51333;BME280;37417;48.118;11.734;2023-09-30T07:04:03;96410.56;;;15.57;100.00
51333;BME280;37417;48.118;11.734;2023-09-30T07:06:48;96405.94;;;15.65;100.00
51333;BME280;37417;48.118;11.734;2023-09-30T07:09:34;96408.38;;;15.74;100.00
51333;BME280;37417;48.118;11.734;2023-09-30T07:12:20;96412.38;;;15.50;100.00
51333;BME280;37417;48.118;11.734;2023-09-30T07:15:06;96422.13;;;15.69;100.00
51333;BME280;37417;48.118;11.734;2023-09-30T07:17:52;96416.63;;;15.57;100.00
51333;BME280;37417;48.118;11.734;2023-09-30T07:20:38;96412.59;;;15.48;100.00
51333;BME280;37417;48.118;11.734;2023-09-30T07:23:24;96414.78;;;15.44;100.00
51333;BME280;37417;48.118;11.734;2023-09-30T07:26:09;96424.50;;;15.44;100.00
51333;BME280;37417;48.118;11.734;2023-09-30T07:28:55;96431.22;;;15.66;100.00
51333;BME280;37417;48.118;11.734;2023-09-30T07:31:42;96427.97;;;15.64;100.00
51333;BME280;37417;48.118;11.734;2023-09-30T07:34:27;96417.88;;;15.75;100.00
51333;BME280;37417;48.118;11.734;2023-09-30T07:37:13;96416.03;;;15.75;100.00
51333;BME280;37417;48.118;11.734;2023-09-30T07:39:59;96423.09;;;15.61;100.00
51333;BME280;37417;48.118;11.734;2023-09-30T07:42:45;96439.34;;;15.65;100.00
51333;BME280;37417;48.118;11.734;2023-09-30T07:45:31;96450.84;;;15.77;100.00
51333;BME280;37417;48.118;11.734;2023-09-30T07:48:17;96445.78;;;15.69;100.00
51333;BME280;37417;48.118;11.734;2023-09-30T07:51:03;96442.91;;;15.57;100.00
51333;BME280;37417;48.118;11.734;2023-09-30T07:53:49;96443.75;;;15.64;100.00
51333;BME280;37417;48.118;11.734;2023-09-30T07:56:36;96445.34;;;15.45;100.00
51333;BME280;37417;48.118;11.734;2023-09-30T07:59:21;96447.00;;;15.73;100.00
51333;BME280;37417;48.118;11.734;2023-09-30T08:02:07;96452.28;;;15.80;100.00
51333;BME280;37417;48.118;11.734;2023-09-30T08:04:54;96445.59;;;16.68;100.00
51333;BME280;37417;48.118;11.734;2023-09-30T08:07:39;96451.66;;;15.91;100.00
51333;BME280;37417;48.118;11.734;2023-09-30T08:10:25;96451.66;;;15.97;100.00
51333;BME280;37417;48.118;11.734;2023-09-30T08:13:11;96463.66;;;16.58;100.00
51333;BME280;37417;48.118;11.734;2023-09-30T08:15:56;96457.94;;;16.68;100.00
51333;BME280;37417;48.118;11.734;2023-09-30T08:18:42;96441.56;;;17.11;100.00
51333;BME280;37417;48.118;11.734;2023-09-30T08:21:28;96445.94;;;17.23;100.00
51333;BME280;37417;48.118;11.734;2023-09-30T08:24:13;96432.63;;;16.73;100.00
51333;BME280;37417;48.118;11.734;2023-09-30T08:26:59;96428.25;;;16.99;100.00
51333;BME280;37417;48.118;11.734;2023-09-30T08:29:45;96433.34;;;16.94;100.00
51333;BME280;37417;48.118;11.734;2023-09-30T08:32:35;96439.50;;;16.68;100.00
51333;BME280;37417;48.118;11.734;2023-09-30T08:35:21;96437.69;;;17.70;100.00
51333;BME280;37417;48.118;11.734;2023-09-30T08:38:07;96436.69;;;17.14;100.00
51333;BME280;37417;48.118;11.734;2023-09-30T08:40:53;96423.03;;;17.80;100.00
51333;BME280;37417;48.118;11.734;2023-09-30T08:43:40;96409.91;;;19.02;94.69
51333;BME280;37417;48.118;11.734;2023-09-30T08:46:28;96438.00;;;19.15;87.67
51333;BME280;37417;48.118;11.734;2023-09-30T08:49:16;96458.31;;;18.66;88.96
51333;BME280;37417;48.118;11.734;2023-09-30T08:52:04;96438.94;;;18.17;90.48
51333;BME280;37417;48.118;11.734;2023-09-30T08:54:51;96446.69;;;16.99;97.15
51333;BME280;37417;48.118;11.734;2023-09-30T08:57:41;96455.06;;;16.89;100.00
51333;BME280;37417;48.118;11.734;2023-09-30T09:00:27;96457.88;;;17.57;99.64
51333;BME280;37417;48.118;11.734;2023-09-30T09:03:13;96447.88;;;17.66;97.87
51333;BME280;37417;48.118;11.734;2023-09-30T09:05:59;96454.09;;;16.77;100.00
51333;BME280;37417;48.118;11.734;2023-09-30T09:08:50;96452.81;;;17.88;99.70
51333;BME280;37417;48.118;11.734;2023-09-30T09:11:38;96451.16;;;17.93;97.47
51333;BME280;37417;48.118;11.734;2023-09-30T09:14:38;96435.16;;;18.68;94.38
51333;BME280;37417;48.118;11.734;2023-09-30T09:17:39;96434.75;;;18.46;87.85
51333;BME280;37417;48.118;11.734;2023-09-30T09:20:26;96442.84;;;17.33;93.08
51333;BME280;37417;48.118;11.734;2023-09-30T09:23:14;96424.53;;;17.95;92.17
51333;BME280;37417;48.118;11.734;2023-09-30T09:26:00;96415.34;;;19.19;84.40
51333;BME280;37417;48.118;11.734;2023-09-30T09:28:46;96424.00;;;19.68;82.14
51333;BME280;37417;48.118;11.734;2023-09-30T09:31:35;96422.63;;;20.24;75.31
51333;BME280;37417;48.118;11.734;2023-09-30T09:34:21;96431.97;;;20.90;70.98
51333;BME280;37417;48.118;11.734;2023-09-30T09:37:17;96432.59;;;19.52;72.71
51333;BME280;37417;48.118;11.734;2023-09-30T09:40:03;96446.00;;;18.78;76.97
51333;BME280;37417;48.118;11.734;2023-09-30T09:42:50;96444.53;;;18.82;78.46
51333;BME280;37417;48.118;11.734;2023-09-30T09:45:39;96446.50;;;18.87;80.61
51333;BME280;37417;48.118;11.734;2023-09-30T09:48:24;96436.34;;;17.92;83.19
51333;BME280;37417;48.118;11.734;2023-09-30T09:51:11;96423.03;;;17.80;88.00
51333;BME280;37417;48.118;11.734;2023-09-30T09:53:58;96418.09;;;18.27;88.38
51333;BME280;37417;48.118;11.734;2023-09-30T09:56:45;96403.16;;;20.42;80.17
51333;BME280;37417;48.118;11.734;2023-09-30T09:59:32;96398.28;;;20.39;72.01
51333;BME280;37417;48.118;11.734;2023-09-30T10:02:19;96394.97;;;22.30;66.92
51333;BME280;37417;48.118;11.734;2023-09-30T10:05:05;96384.25;;;23.12;62.45
51333;BME280;37417;48.118;11.734;2023-09-30T10:07:55;96399.91;;;22.65;58.05
51333;BME280;37417;48.118;11.734;2023-09-30T10:10:43;96390.44;;;21.92;59.51
51333;BME280;37417;48.118;11.734;2023-09-30T10:13:55;96387.56;;;23.30;57.58
51333;BME280;37417;48.118;11.734;2023-09-30T10:19:29;96394.88;;;22.41;59.41
51333;BME280;37417;48.118;11.734;2023-09-30T10:25:33;96404.53;;;24.72;53.78
51333;BME280;37417;48.118;11.734;2023-09-30T10:31:22;96408.88;;;23.03;53.43
51333;BME280;37417;48.118;11.734;2023-09-30T10:36:56;96396.25;;;20.81;59.52
51333;BME280;37417;48.118;11.734;2023-09-30T10:39:57;96384.25;;;19.56;64.17
51333;BME280;37417;48.118;11.734;2023-09-30T10:42:49;96379.09;;;19.96;63.39
51333;BME280;37417;48.118;11.734;2023-09-30T10:51:22;96381.13;;;23.85;54.24
51333;BME280;37417;48.118;11.734;2023-09-30T10:54:07;96388.22;;;24.11;53.52
51333;BME280;37417;48.118;11.734;2023-09-30T10:56:54;96395.78;;;24.97;51.26
51333;BME280;37417;48.118;11.734;2023-09-30T10:59:40;96393.78;;;23.08;52.83
51333;BME280;37417;48.118;11.734;2023-09-30T11:02:26;96392.69;;;24.43;53.12
51333;BME280;37417;48.118;11.734;2023-09-30T11:05:12;96399.69;;;22.88;53.25
51333;BME280;37417;48.118;11.734;2023-09-30T11:08:02;96403.06;;;21.34;57.78
51333;BME280;37417;48.118;11.734;2023-09-30T11:10:49;96399.63;;;21.67;55.85
51333;BME280;37417;48.118;11.734;2023-09-30T11:13:36;96385.53;;;21.04;59.72
51333;BME280;37417;48.118;11.734;2023-09-30T11:16:21;96385.06;;;22.08;56.72
51333;BME280;37417;48.118;11.734;2023-09-30T11:19:07;96370.28;;;22.34;54.65
51333;BME280;37417;48.118;11.734;2023-09-30T11:21:55;96375.44;;;23.44;55.64
51333;BME280;37417;48.118;11.734;2023-09-30T11:24:40;96378.03;;;25.79;49.29
51333;BME280;37417;48.118;11.734;2023-09-30T11:27:26;96367.72;;;26.97;45.08
51333;BME280;37417;48.118;11.734;2023-09-30T11:30:12;96381.19;;;25.35;45.60
51333;BME280;37417;48.118;11.734;2023-09-30T11:32:59;96378.03;;;25.84;47.77
51333;BME280;37417;48.118;11.734;2023-09-30T11:36:01;96380.97;;;25.73;46.26
51333;BME280;37417;48.118;11.734;2023-09-30T11:38:48;96382.38;;;24.67;47.66
51333;BME280;37417;48.118;11.734;2023-09-30T11:41:38;96387.59;;;21.98;52.36
51333;BME280;37417;48.118;11.734;2023-09-30T11:44:24;96382.16;;;22.92;54.72
51333;BME280;37417;48.118;11.734;2023-09-30T11:47:11;96378.00;;;23.61;53.52
51333;BME280;37417;48.118;11.734;2023-09-30T11:49:57;96385.28;;;23.70;52.86
51333;BME280;37417;48.118;11.734;2023-09-30T11:52:45;96384.41;;;23.97;51.64
51333;BME280;37417;48.118;11.734;2023-09-30T11:55:32;96380.50;;;23.40;53.22
51333;BME280;37417;48.118;11.734;2023-09-30T11:58:18;96382.09;;;21.32;55.20
51333;BME280;37417;48.118;11.734;2023-09-30T12:01:04;96379.91;;;24.50;52.49
51333;BME280;37417;48.118;11.734;2023-09-30T12:03:52;96376.66;;;25.31;47.88
51333;BME280;37417;48.118;11.734;2023-09-30T12:06:40;96385.25;;;25.79;46.13
51333;BME280;37417;48.118;11.734;2023-09-30T12:09:26;96379.84;;;24.40;47.26
51333;BME280;37417;48.118;11.734;2023-09-30T12:12:12;96370.47;;;22.93;49.02
51333;BME280;37417;48.118;11.734;2023-09-30T12:15:00;96357.91;;;24.22;48.46
51333;BME280;37417;48.118;11.734;2023-09-30T12:17:45;96356.53;;;27.68;43.22
51333;BME280;37417;48.118;11.734;2023-09-30T12:20:31;96350.91;;;27.70;38.82
51333;BME280;37417;48.118;11.734;2023-09-30T12:23:17;96344.63;;;29.51;37.57
51333;BME280;37417;48.118;11.734;2023-09-30T12:26:03;96353.75;;;31.20;34.95
51333;BME280;37417;48.118;11.734;2023-09-30T12:28:50;96347.03;;;30.95;35.95
51333;BME280;37417;48.118;11.734;2023-09-30T12:31:36;96345.34;;;30.99;35.85
51333;BME280;37417;48.118;11.734;2023-09-30T12:34:22;96354.09;;;30.68;36.61
51333;BME280;37417;48.118;11.734;2023-09-30T12:37:12;96337.22;;;31.35;35.59
51333;BME280;37417;48.118;11.734;2023-09-30T12:39:58;96340.19;;;30.06;36.98
51333;BME280;37417;48.118;11.734;2023-09-30T12:42:44;96341.28;;;31.24;35.71
51333;BME280;37417;48.118;11.734;2023-09-30T12:45:30;96343.00;;;30.29;34.48
51333;BME280;37417;48.118;11.734;2023-09-30T12:48:16;96337.13;;;30.54;35.78
51333;BME280;37417;48.118;11.734;2023-09-30T12:51:02;96340.88;;;31.17;34.48
51333;BME280;37417;48.118;11.734;2023-09-30T12:53:51;96338.69;;;31.41;34.33
51333;BME280;37417;48.118;11.734;2023-09-30T12:56:37;96343.81;;;30.29;35.16
51333;BME280;37417;48.118;11.734;2023-09-30T12:59:23;96335.19;;;26.10;40.05
51333;BME280;37417;48.118;11.734;2023-09-30T13:02:11;96340.28;;;26.01;40.67
51333;BME280;37417;48.118;11.734;2023-09-30T13:04:57;96344.25;;;27.28;40.83
51333;BME280;37417;48.118;11.734;2023-09-30T13:07:43;96357.22;;;26.61;39.97
51333;BME280;37417;48.118;11.734;2023-09-30T13:10:28;96351.13;;;26.51;41.15
51333;BME280;37417;48.118;11.734;2023-09-30T13:13:16;96355.72;;;24.77;43.97
51333;BME280;37417;48.118;11.734;2023-09-30T13:16:03;96348.28;;;24.89;44.35
51333;BME280;37417;48.118;11.734;2023-09-30T13:18:52;96342.38;;;24.09;44.69
51333;BME280;37417;48.118;11.734;2023-09-30T13:21:38;96340.84;;;24.23;44.53
51333;BME280;37417;48.118;11.734;2023-09-30T13:24:26;96335.56;;;22.02;49.09
51333;BME280;37417;48.118;11.734;2023-09-30T13:27:12;96318.72;;;23.75;47.56
51333;BME280;37417;48.118;11.734;2023-09-30T13:30:01;96313.97;;;23.50;46.34
51333;BME280;37417;48.118;11.734;2023-09-30T13:32:46;96319.00;;;23.79;46.16
51333;BME280;37417;48.118;11.734;2023-09-30T13:35:32;96319.59;;;24.44;44.83
51333;BME280;37417;48.118;11.734;2023-09-30T13:38:18;96314.25;;;23.49;47.34
51333;BME280;37417;48.118;11.734;2023-09-30T13:41:04;96303.75;;;23.32;47.34
51333;BME280;37417;48.118;11.734;2023-09-30T13:43:50;96306.38;;;24.12;46.33
51333;BME280;37417;48.118;11.734;2023-09-30T13:46:36;96314.25;;;23.49;47.72
51333;BME280;37417;48.118;11.734;2023-09-30T13:49:21;96313.63;;;23.37;48.28
51333;BME280;37417;48.118;11.734;2023-09-30T13:52:07;96315.53;;;23.41;48.92
51333;BME280;37417;48.118;11.734;2023-09-30T13:54:53;96302.66;;;22.47;49.44
51333;BME280;37417;48.118;11.734;2023-09-30T13:57:40;96296.22;;;22.92;51.74
51333;BME280;37417;48.118;11.734;2023-09-30T14:00:26;96290.41;;;25.51;46.50
51333;BME280;37417;48.118;11.734;2023-09-30T14:03:12;96291.63;;;27.13;43.08
51333;BME280;37417;48.118;11.734;2023-09-30T14:05:57;96302.25;;;28.91;38.32
51333;BME280;37417;48.118;11.734;2023-09-30T14:08:44;96303.28;;;28.57;37.59
51333;BME280;37417;48.118;11.734;2023-09-30T14:11:30;96306.22;;;28.37;39.17
51333;BME280;37417;48.118;11.734;2023-09-30T14:14:17;96305.91;;;28.81;37.80
51333;BME280;37417;48.118;11.734;2023-09-30T14:17:05;96300.88;;;29.64;36.90
51333;BME280;37417;48.118;11.734;2023-09-30T14:19:56;96304.00;;;28.44;38.71
51333;BME280;37417;48.118;11.734;2023-09-30T14:22:41;96301.25;;;27.77;39.75
51333;BME280;37417;48.118;11.734;2023-09-30T14:25:27;96296.53;;;26.46;40.61
51333;BME280;37417;48.118;11.734;2023-09-30T14:28:13;96296.81;;;25.24;42.45
51333;BME280;37417;48.118;11.734;2023-09-30T14:31:02;96295.66;;;23.96;45.48
51333;BME280;37417;48.118;11.734;2023-09-30T14:33:48;96293.81;;;23.60;47.32
51333;BME280;37417;48.118;11.734;2023-09-30T14:36:36;96289.81;;;22.88;49.91
51333;BME280;37417;48.118;11.734;2023-09-30T14:39:22;96295.44;;;22.21;50.33
51333;BME280;37417;48.118;11.734;2023-09-30T14:42:08;96304.66;;;21.57;51.45